Flight Track Log - Related Links

Times and Time Zones

All times are in EDT time to prevent confusion due to time zone crossing. See the SKW5619 flight status page for this flight to view local times or setup timezone preferences in your user account.

Time Position Orientation Groundspeed Altitude Reporting Facility
EDT Latitude Longitude Course Direction KTS MPH feet Rate Location/Type
Wed 09:31:00 PM 40.1326 -104.9294 324° Northwest  Level Estimated
Wed 09:32:00 PM 40.2228 -105.0153 324° Northwest  Level Estimated
Wed 09:33:00 PM 40.3130 -105.1013 324° Northwest  Level Estimated
Wed 09:34:00 PM 40.4030 -105.1877 324° Northwest  Level Estimated
Wed 09:35:00 PM 40.4930 -105.2742 324° Northwest  Level Estimated
Wed 09:36:00 PM 40.5830 -105.3610 324° Northwest  Level Estimated
Wed 09:37:00 PM 40.6729 -105.4480 324° Northwest  Level Estimated
Wed 09:38:00 PM 40.7627 -105.5353 324° Northwest  Level Estimated
Wed 09:39:00 PM 40.8524 -105.6227 324° Northwest  Level Estimated
Wed 09:40:00 PM 40.9421 -105.7105 324° Northwest  Level Estimated
Wed 09:41:00 PM 41.0317 -105.7984 323° Northwest  Level Estimated
Wed 09:42:00 PM 41.1213 -105.8866 323° Northwest  Level Estimated
Wed 09:43:00 PM 41.2107 -105.9751 323° Northwest  Level Estimated
Wed 09:44:00 PM 41.3001 -106.0638 323° Northwest  Level Estimated
Wed 09:45:00 PM 41.3895 -106.1527 323° Northwest  Level Estimated
Wed 09:46:00 PM 41.4787 -106.2419 323° Northwest  Level Estimated
Wed 09:47:00 PM 41.5680 -106.3313 323° Northwest  Level Estimated
Wed 09:48:00 PM 41.6571 -106.4210 323° Northwest  Level Estimated
Wed 09:49:00 PM 41.7461 -106.5109 323° Northwest  Level Estimated
Wed 09:50:00 PM 41.8351 -106.6010 323° Northwest  Level Estimated
Wed 09:51:00 PM 41.9240 -106.6915 323° Northwest  Level Estimated
Wed 09:52:00 PM 42.0129 -106.7821 323° Northwest  Level Estimated
Wed 09:53:00 PM 42.1017 -106.8730 323° Northwest  Level Estimated
Wed 09:54:00 PM 42.1904 -106.9642 323° Northwest  Level Estimated
Wed 09:55:00 PM 42.2790 -107.0557 323° Northwest  Level Estimated
Wed 09:56:00 PM 42.3676 -107.1473 323° Northwest  Level Estimated
Wed 09:57:00 PM 42.4561 -107.2393 323° Northwest  Level Estimated
Wed 09:58:00 PM 42.5445 -107.3315 322° Northwest  Level Estimated
Wed 09:59:00 PM 42.6328 -107.4240 322° Northwest  Level Estimated
Wed 10:00:00 PM 42.7211 -107.5167 322° Northwest  Level Estimated
Wed 10:01:00 PM 42.8093 -107.6097 322° Northwest  Level Estimated
Wed 10:02:00 PM 42.8974 -107.7030 322° Northwest  Level Estimated
Wed 10:03:00 PM 42.9855 -107.7965 322° Northwest  Level Estimated
Wed 10:04:00 PM 43.0734 -107.8903 322° Northwest  Level Estimated
Wed 10:05:00 PM 43.1613 -107.9844 322° Northwest  Level Estimated
Wed 10:06:00 PM 43.2491 -108.0787 322° Northwest  Level Estimated
Wed 10:07:00 PM 43.3368 -108.1733 322° Northwest  Level Estimated
Wed 10:08:00 PM 43.4245 -108.2682 322° Northwest  Level Estimated
Wed 10:09:00 PM 43.5121 -108.3634 322° Northwest  Level Estimated
Wed 10:10:00 PM 43.5996 -108.4588 322° Northwest  Level Estimated
Wed 10:11:00 PM 43.6870 -108.5545 322° Northwest  Level Estimated
Wed 10:12:00 PM 43.7743 -108.6505 322° Northwest  Level Estimated
Wed 10:13:00 PM 43.8616 -108.7468 322° Northwest  Level Estimated
Wed 10:14:00 PM 43.9488 -108.8433 321° Northwest  Level Estimated
Wed 10:15:00 PM 44.0359 -108.9402 321° Northwest  Level Estimated
Wed 10:16:00 PM 44.1229 -109.0373 321° Northwest  Level Estimated
Wed 10:17:00 PM 44.2098 -109.1347 321° Northwest  Level Estimated
Wed 10:18:00 PM 44.2966 -109.2324 321° Northwest  Level Estimated
Wed 10:19:00 PM 44.3834 -109.3304 321° Northwest  Level Estimated
Wed 10:20:00 PM 44.4701 -109.4287 321° Northwest  Level Estimated
Wed 10:21:00 PM 44.5567 -109.5272 321° Northwest  Level Estimated
Wed 10:22:00 PM 44.6432 -109.6261 321° Northwest  Level Estimated
Wed 10:23:00 PM 44.7296 -109.7253 321° Northwest  Level Estimated
Wed 10:24:00 PM 44.8159 -109.8247 321° Northwest  Level Estimated
Wed 10:25:00 PM 44.9022 -109.9245 321° Northwest  Level Estimated
Wed 10:26:00 PM 44.9884 -110.0245 321° Northwest  Level Estimated
Wed 10:27:00 PM 45.0744 -110.1249 321° Northwest  Level Estimated
Wed 10:28:00 PM 45.1604 -110.2255 320° Northwest  Level Estimated
Wed 10:29:00 PM 45.2463 -110.3265 320° Northwest  Level Estimated
Wed 10:30:00 PM 45.3321 -110.4278 320° Northwest  Level Estimated
Wed 10:31:00 PM 45.4179 -110.5293 320° Northwest  Level Estimated
Wed 10:32:00 PM 45.5035 -110.6312 320° Northwest  Level Estimated
Wed 10:33:00 PM 45.5890 -110.7334 320° Northwest  Level Estimated
Wed 10:34:00 PM 45.6745 -110.8359 320° Northwest  Level Estimated
Wed 10:35:00 PM 45.7598 -110.9387 320° Northwest  Level Estimated
Wed 10:36:00 PM 45.8451 -111.0419 320° Northwest  Level Estimated
Wed 10:37:00 PM 45.9303 -111.1453 320° Northwest  Level Estimated
Wed 10:38:00 PM 46.0154 -111.2491 320° Northwest  Level Estimated
Wed 10:39:00 PM 46.1003 -111.3532 320° Northwest  Level Estimated
Wed 10:40:00 PM 46.1852 -111.4576 320° Northwest  Level Estimated
Wed 10:41:00 PM 46.2700 -111.5623 320° Northwest  Level Estimated
Wed 10:42:00 PM 46.3547 -111.6674 319° Northwest  Level Estimated
Wed 10:43:00 PM 46.4393 -111.7728 319° Northwest  Level Estimated
Wed 10:44:00 PM 46.5238 -111.8785 319° Northwest  Level Estimated
Wed 10:45:00 PM 46.6068 -111.9827 319° Northwest  Level Estimated
Wed 10:46:00 PM 46.6068 -111.9827 180° South  Level Estimated
Wed 10:47:00 PM 46.6068 -111.9827 180° South  Level Estimated
Wed 10:48:00 PM 46.6068 -111.9827 180° South  Level Estimated
Wed 10:49:00 PM 46.6068 -111.9827 180° South  Level Estimated
Wed 10:50:00 PM 46.6068 -111.9827 180° South  Level Estimated
Wed 10:51:00 PM 46.6068 -111.9827 180° South  Level Estimated
Wed 10:52:00 PM 46.6068 -111.9827 180° South  Level Estimated
Wed 10:53:00 PM 46.6068 -111.9827 180° South  Level Estimated
Wed 10:54:00 PM 46.6068 -111.9827 180° South  Level Estimated
Wed 10:55:00 PM 46.6068 -111.9827 180° South  Level Estimated
Wed 10:56:00 PM 46.6068 -111.9827 180° South  Level Estimated
Wed 10:57:00 PM 46.6068 -111.9827 180° South  Level Estimated
Wed 10:58:00 PM 46.6068 -111.9827 180° South  Level Estimated

Login

Don't have an account? Register now (free) for customized features, flight alerts, and more!